createdAt,value
2018-08-19T00:47:00.339Z,17.10
2018-08-19T00:52:01.899Z,17.10
2018-08-19T00:56:55.832Z,17.10
2018-08-19T01:01:49.095Z,17.10
2018-08-19T01:06:48.134Z,17.10
2018-08-19T02:16:23.063Z,16.60
2018-08-19T02:21:16.392Z,16.50
2018-08-19T02:26:09.844Z,16.40
2018-08-19T02:31:03.173Z,16.30
2018-08-19T02:36:01.021Z,16.40
2018-08-19T03:45:47.938Z,15.80
2018-08-19T03:50:41.191Z,15.70
2018-08-19T03:55:37.221Z,15.70
2018-08-19T04:00:32.340Z,15.70
2018-08-19T04:05:43.078Z,15.70
2018-08-19T05:15:30.330Z,16.10
2018-08-19T05:20:23.647Z,16.20
2018-08-19T05:25:16.950Z,16.30
2018-08-19T05:30:10.805Z,16.50
2018-08-19T06:39:36.748Z,26.20
2018-08-19T06:44:30.022Z,26.90
2018-08-19T06:49:26.274Z,26.80
2018-08-19T06:54:19.552Z,27.40
2018-08-19T07:36:55.162Z,30.90
2018-08-19T07:41:48.394Z,31.00
2018-08-19T07:46:41.622Z,31.00
2018-08-19T07:51:34.947Z,30.90
2018-08-19T07:56:28.231Z,32.00
2018-08-19T08:01:21.489Z,32.60
2018-08-19T08:06:14.753Z,33.40
2018-08-19T08:11:08.009Z,32.90
2018-08-19T08:16:01.805Z,34.30
2018-08-19T08:21:00.870Z,35.30
2018-08-19T08:25:54.201Z,33.40
2018-08-19T08:30:47.411Z,34.30
2018-08-19T08:35:45.228Z,33.80
2018-08-19T08:40:38.464Z,32.40
2018-08-19T08:45:36.260Z,32.70
2018-08-19T08:50:29.547Z,34.20
2018-08-19T08:55:22.873Z,33.80
2018-08-19T09:00:16.115Z,34.50
2018-08-19T09:05:11.403Z,34.30
2018-08-19T09:10:05.502Z,33.20
2018-08-19T09:14:58.771Z,32.50
2018-08-19T09:19:52.084Z,32.20
2018-08-19T09:24:45.341Z,31.90
2018-08-19T09:29:38.586Z,32.80
2018-08-19T09:34:31.861Z,32.20
2018-08-19T09:39:25.166Z,32.50
2018-08-19T09:44:18.592Z,33.00
2018-08-19T09:49:11.829Z,33.20
2018-08-19T09:54:06.107Z,32.90
2018-08-19T09:59:05.028Z,33.50
2018-08-19T10:03:58.484Z,33.10
2018-08-19T10:08:51.756Z,32.40
2018-08-19T10:13:47.402Z,32.60
2018-08-19T10:18:40.623Z,32.60
2018-08-19T10:23:33.974Z,32.10
2018-08-19T10:28:27.262Z,30.90
2018-08-19T10:33:21.697Z,29.90
2018-08-19T10:38:16.046Z,29.60
2018-08-19T10:43:10.119Z,29.40
2018-08-19T10:48:03.676Z,28.90
2018-08-19T10:52:56.960Z,28.60
2018-08-19T10:57:50.263Z,28.60
2018-08-19T11:02:43.599Z,28.70
2018-08-19T11:07:36.902Z,28.50
2018-08-19T11:12:30.234Z,28.30
2018-08-19T11:17:23.579Z,28.10
2018-08-19T11:22:17.463Z,28.10
2018-08-19T11:27:10.753Z,28.10
2018-08-19T11:32:04.146Z,28.40
2018-08-19T11:36:57.371Z,28.20
2018-08-19T11:41:50.677Z,28.20
2018-08-19T11:46:43.966Z,28.30
2018-08-19T11:51:58.883Z,28.00
2018-08-19T11:57:00.772Z,28.00
2018-08-19T12:01:54.044Z,28.10
2018-08-19T12:06:47.304Z,28.30
2018-08-19T12:11:41.412Z,27.80
2018-08-19T12:16:47.094Z,28.00
2018-08-19T12:21:44.825Z,28.50
2018-08-19T12:26:42.434Z,28.60
2018-08-19T12:31:35.865Z,28.70
2018-08-19T12:36:29.182Z,28.50
2018-08-19T12:41:22.503Z,28.20
2018-08-19T12:46:15.768Z,28.30
2018-08-19T12:51:09.114Z,28.40
2018-08-19T12:56:02.345Z,28.40
2018-08-19T13:00:55.601Z,28.50
2018-08-19T13:06:04.118Z,28.50
2018-08-19T13:11:01.559Z,28.20
2018-08-19T13:15:54.915Z,28.70
2018-08-19T13:20:48.167Z,28.80
2018-08-19T13:25:41.397Z,28.80
2018-08-19T13:30:34.729Z,29.10
2018-08-19T13:35:28.048Z,29.00
2018-08-19T13:40:21.343Z,29.20
2018-08-19T13:45:17.742Z,28.90
2018-08-19T13:50:11.252Z,29.10
2018-08-19T13:55:08.132Z,29.50
2018-08-19T14:00:01.451Z,29.50
2018-08-19T14:04:54.695Z,29.40
2018-08-19T14:09:47.986Z,29.30
2018-08-19T14:14:41.191Z,29.50
2018-08-19T14:19:34.396Z,29.60
2018-08-19T14:24:27.606Z,29.40
2018-08-19T14:29:20.880Z,29.40
2018-08-19T14:34:14.124Z,29.50
2018-08-19T14:39:07.427Z,29.60
2018-08-19T14:44:02.474Z,29.40
2018-08-19T14:48:57.733Z,29.60
2018-08-19T14:53:50.987Z,29.60
2018-08-19T14:58:45.104Z,29.70
2018-08-19T15:03:44.182Z,29.60
2018-08-19T15:08:37.452Z,29.30
2018-08-19T15:13:30.694Z,29.30
2018-08-19T15:18:24.834Z,29.40
2018-08-19T15:23:19.862Z,29.60
2018-08-19T15:28:13.357Z,29.70
2018-08-19T15:33:06.935Z,29.50
2018-08-19T15:38:00.490Z,29.30
2018-08-19T15:42:53.752Z,29.20
2018-08-19T15:47:46.990Z,29.30
2018-08-19T15:52:40.249Z,29.20
2018-08-19T15:57:33.532Z,29.00
2018-08-19T16:02:26.848Z,28.90
2018-08-19T16:07:20.072Z,29.00
2018-08-19T16:12:13.924Z,28.80
2018-08-19T16:17:07.187Z,28.70
2018-08-19T16:22:00.596Z,28.60
2018-08-19T16:26:53.925Z,28.50
2018-08-19T16:31:47.231Z,28.30
2018-08-19T16:36:40.545Z,28.00
2018-08-19T16:41:33.852Z,28.00
2018-08-19T16:46:27.096Z,27.90
2018-08-19T16:51:20.753Z,27.80
2018-08-19T16:56:14.089Z,27.60
2018-08-19T17:01:07.390Z,27.50
2018-08-19T17:06:00.802Z,27.40
2018-08-19T17:10:54.058Z,27.20
2018-08-19T17:15:47.322Z,27.10
2018-08-19T17:20:41.322Z,27.00
2018-08-19T17:25:34.621Z,26.80
2018-08-19T17:30:27.847Z,26.80
2018-08-19T17:35:21.116Z,26.70
2018-08-19T17:40:15.043Z,26.60
2018-08-19T17:45:08.409Z,26.50
2018-08-19T17:50:01.682Z,26.40
2018-08-19T17:54:54.925Z,26.30
2018-08-19T17:59:48.876Z,26.10
2018-08-19T18:04:46.343Z,26.00
2018-08-19T18:09:44.110Z,25.90
2018-08-19T18:14:37.335Z,25.70
2018-08-19T18:19:35.496Z,25.50
2018-08-19T18:24:29.724Z,25.30
2018-08-19T18:29:37.943Z,25.10
2018-08-19T18:34:32.263Z,25.00
2018-08-19T18:39:26.602Z,24.80
2018-08-19T18:44:20.109Z,24.70
2018-08-19T18:49:13.667Z,24.50
2018-08-19T18:54:15.814Z,24.30
2018-08-19T18:59:10.090Z,24.20
2018-08-19T19:04:03.900Z,24.00
2018-08-19T19:08:57.267Z,23.90
2018-08-19T19:13:50.528Z,23.70
2018-08-19T19:18:43.999Z,23.70
2018-08-19T19:23:39.421Z,23.60
2018-08-19T19:33:51.847Z,23.40
2018-08-19T19:39:01.992Z,23.20
2018-08-19T19:44:13.595Z,23.10
2018-08-19T19:49:20.701Z,22.90
2018-08-19T19:54:19.433Z,22.80
2018-08-19T19:59:20.994Z,22.70
2018-08-19T20:04:14.493Z,22.60
2018-08-19T20:09:08.264Z,22.60
2018-08-19T20:14:02.902Z,22.60
2018-08-19T20:18:56.167Z,22.60
2018-08-19T20:23:51.248Z,22.50
2018-08-19T20:28:48.774Z,22.50
2018-08-19T20:33:42.144Z,22.40
2018-08-19T20:38:35.456Z,22.40
2018-08-19T20:43:28.815Z,22.30
2018-08-19T20:48:22.564Z,22.30
2018-08-19T20:53:16.182Z,22.20
2018-08-19T20:58:10.169Z,22.20
2018-08-19T21:03:03.612Z,22.20
2018-08-19T21:08:06.502Z,22.20
2018-08-19T21:12:59.828Z,22.10
2018-08-19T21:17:53.079Z,22.00
2018-08-19T21:22:46.337Z,21.90
2018-08-19T21:27:39.826Z,21.70
2018-08-19T21:32:33.478Z,21.60
2018-08-19T21:37:34.449Z,21.50
2018-08-19T21:42:27.801Z,21.50
2018-08-19T21:47:21.068Z,21.40
2018-08-19T21:52:14.303Z,21.30
2018-08-19T21:57:07.561Z,21.20
2018-08-19T22:02:00.812Z,21.20
2018-08-19T22:06:54.105Z,21.10
2018-08-19T22:11:47.409Z,21.00
2018-08-19T22:16:40.700Z,20.90
2018-08-19T22:21:33.976Z,20.90
2018-08-19T22:26:27.219Z,20.90
2018-08-19T22:31:25.649Z,20.90
2018-08-19T22:36:19.435Z,20.90
2018-08-19T22:41:12.646Z,21.00
2018-08-19T22:46:05.888Z,21.00
2018-08-19T22:50:59.124Z,21.00
2018-08-19T22:55:52.382Z,20.90
2018-08-19T23:00:46.575Z,20.90
2018-08-19T23:05:39.792Z,20.90
2018-08-19T23:10:33.036Z,20.70
2018-08-19T23:15:37.788Z,20.70
2018-08-19T23:20:31.029Z,20.50
2018-08-19T23:25:24.441Z,20.50
2018-08-19T23:30:17.754Z,20.60
2018-08-19T23:35:11.033Z,20.80
2018-08-19T23:40:04.800Z,21.00
2018-08-19T23:44:58.084Z,21.20
2018-08-19T23:49:51.358Z,21.30
2018-08-19T23:54:44.639Z,21.40
2018-08-19T23:59:37.928Z,21.50
